Time;durP1;ratioP1;P1;durP2;ratioP2;P2;SDS_P1;SDS_P2;PMS_P1;PMS_P2;Temp;Humidity;BMP_temperature;BMP_pressure;BME280_temperature;BME280_humidity;BME280_pressure;Samples;Min_cycle;Max_cycle;Signal;HPM_P1;HPM_P2
2022/07/05 00:00:09;;;;;;;2.88;1.20;;;;;;;15.70;100.00;96954.09;5035550;28;20044;-73
2022/07/05 00:02:38;;;;;;;5.05;1.48;;;;;;;15.73;100.00;96950.88;5035849;28;20036;-72
2022/07/05 00:05:03;;;;;;;5.45;1.27;;;;;;;15.75;100.00;96960.31;5036951;28;20037;-74
2022/07/05 00:07:29;;;;;;;4.03;1.20;;;;;;;15.80;100.00;96963.03;5037093;28;20045;-74
2022/07/05 00:09:56;;;;;;;2.70;1.10;;;;;;;15.69;100.00;96958.69;5033093;28;20036;-73
2022/07/05 00:12:28;;;;;;;3.70;1.10;;;;;;;15.60;100.00;96954.88;5036764;28;20661;-73
2022/07/05 00:14:54;;;;;;;3.85;1.40;;;;;;;15.42;100.00;96964.28;5033657;28;20032;-72
2022/07/05 00:17:20;;;;;;;2.80;1.10;;;;;;;15.18;100.00;96963.16;5038867;28;20049;-73
2022/07/05 00:19:45;;;;;;;2.70;1.10;;;;;;;14.86;100.00;96971.38;5045092;28;20043;-73
2022/07/05 00:22:11;;;;;;;5.35;1.30;;;;;;;14.99;100.00;96965.50;5044150;28;20029;-73
2022/07/05 00:24:37;;;;;;;4.22;1.38;;;;;;;15.17;100.00;96966.91;5035555;28;20421;-73
2022/07/05 00:27:02;;;;;;;3.85;1.10;;;;;;;15.25;100.00;96959.16;5039290;28;20552;-73
2022/07/05 00:29:28;;;;;;;6.63;1.30;;;;;;;15.26;100.00;96958.06;5053186;28;20044;-72
2022/07/05 00:31:54;;;;;;;3.63;1.10;;;;;;;14.93;100.00;96961.16;5034645;28;20379;-73
2022/07/05 00:34:20;;;;;;;4.13;1.25;;;;;;;15.05;100.00;96961.78;5036367;28;20076;-73
2022/07/05 00:36:45;;;;;;;4.72;1.20;;;;;;;15.01;100.00;96963.34;5038482;28;20030;-72
2022/07/05 00:39:11;;;;;;;3.88;1.15;;;;;;;14.97;100.00;96963.09;5034493;28;20044;-73
2022/07/05 00:41:37;;;;;;;4.28;1.10;;;;;;;14.95;100.00;96965.25;5035630;28;20462;-73
2022/07/05 00:44:05;;;;;;;5.70;1.20;;;;;;;15.00;100.00;96961.75;5050632;28;20484;-74
2022/07/05 00:46:31;;;;;;;4.22;1.30;;;;;;;14.61;100.00;96964.81;5035030;28;20041;-74
2022/07/05 00:48:58;;;;;;;3.85;1.35;;;;;;;14.75;100.00;96965.97;5038454;28;20039;-72
2022/07/05 00:51:25;;;;;;;3.15;1.10;;;;;;;14.87;100.00;96973.84;5038863;28;20634;-72
2022/07/05 00:53:51;;;;;;;5.45;1.02;;;;;;;14.93;100.00;96966.56;5038334;28;20045;-73
2022/07/05 00:56:19;;;;;;;3.92;1.38;;;;;;;14.96;100.00;96966.06;5036408;28;20029;-73
2022/07/05 00:58:45;;;;;;;5.93;1.10;;;;;;;14.95;100.00;96976.03;5034964;28;20032;-74
2022/07/05 01:01:11;;;;;;;4.43;1.30;;;;;;;14.96;100.00;96961.47;5036859;28;20036;-73
2022/07/05 01:03:38;;;;;;;4.32;1.10;;;;;;;14.96;100.00;96966.06;5037627;28;20041;-73
2022/07/05 01:06:09;;;;;;;2.67;1.05;;;;;;;14.83;100.00;96978.13;5033142;28;20032;-74
2022/07/05 01:08:40;;;;;;;5.05;1.30;;;;;;;14.70;100.00;96971.31;5035504;28;20047;-73
2022/07/05 01:11:07;;;;;;;2.95;1.27;;;;;;;14.71;100.00;96970.25;5035992;28;20029;-73
2022/07/05 01:13:35;;;;;;;4.60;1.10;;;;;;;14.43;100.00;96973.31;5037669;28;20108;-73
2022/07/05 01:16:01;;;;;;;3.65;1.63;;;;;;;14.43;100.00;96968.72;5035478;28;20444;-72
2022/07/05 01:18:27;;;;;;;4.45;1.30;;;;;;;14.44;100.00;96983.00;5033341;28;20128;-73
2022/07/05 01:20:56;;;;;;;2.63;1.05;;;;;;;14.48;100.00;96966.09;5034485;28;20037;-72
2022/07/05 01:23:22;;;;;;;3.58;1.20;;;;;;;14.48;100.00;96968.78;5035821;28;20111;-73
2022/07/05 01:25:48;;;;;;;3.08;1.20;;;;;;;14.46;100.00;96968.22;5035426;28;20029;-73
2022/07/05 01:28:15;;;;;;;4.97;1.38;;;;;;;14.39;100.00;96966.81;5035556;28;20055;-73
2022/07/05 01:30:42;;;;;;;4.32;1.30;;;;;;;14.36;100.00;96962.75;5048968;28;20044;-73
2022/07/05 01:33:09;;;;;;;7.22;1.30;;;;;;;14.26;100.00;96967.28;5031562;28;20856;-73
2022/07/05 01:35:35;;;;;;;4.93;1.40;;;;;;;14.23;100.00;96968.59;5034551;28;20088;-73
2022/07/05 01:38:04;;;;;;;4.40;1.20;;;;;;;14.16;100.00;96971.53;5035898;28;20044;-72
2022/07/05 01:40:31;;;;;;;4.93;1.30;;;;;;;13.98;100.00;96961.16;5031451;28;20426;-73
2022/07/05 01:42:56;;;;;;;3.83;1.50;;;;;;;13.88;100.00;96969.16;5038228;28;20076;-73
2022/07/05 01:45:41;;;;;;;5.25;1.40;;;;;;;13.89;100.00;96965.38;5033991;28;20036;-72
2022/07/05 01:48:15;;;;;;;5.28;1.50;;;;;;;13.88;100.00;96966.47;5033361;28;20039;-74
2022/07/05 01:50:48;;;;;;;6.13;1.40;;;;;;;13.87;100.00;96962.16;5038053;28;20032;-72
2022/07/05 01:53:18;;;;;;;3.72;1.60;;;;;;;13.75;100.00;96958.81;5034917;28;20068;-72
2022/07/05 01:55:44;;;;;;;5.10;1.67;;;;;;;13.70;100.00;96958.78;5036011;28;20029;-72
2022/07/05 01:58:10;;;;;;;4.60;1.40;;;;;;;13.62;100.00;96955.50;5034154;28;20115;-72
2022/07/05 02:00:46;;;;;;;3.42;1.50;;;;;;;13.71;100.00;96961.22;5034101;28;20033;-73
2022/07/05 02:03:13;;;;;;;4.53;1.40;;;;;;;13.82;100.00;96960.22;5033636;28;20092;-73
2022/07/05 02:05:41;;;;;;;11.07;1.50;;;;;;;13.93;100.00;96963.81;5037343;28;20662;-73
2022/07/05 02:08:07;;;;;;;4.78;1.55;;;;;;;13.99;100.00;96956.56;5031012;28;20318;-74
2022/07/05 02:10:35;;;;;;;4.80;1.52;;;;;;;13.89;100.00;96960.00;5030700;28;20037;-72
2022/07/05 02:13:00;;;;;;;3.58;1.52;;;;;;;13.82;100.00;96959.41;5032398;28;20116;-72
2022/07/05 02:15:26;;;;;;;5.22;1.50;;;;;;;13.81;100.00;96968.56;5049347;28;20082;-73
2022/07/05 02:17:52;;;;;;;6.35;1.65;;;;;;;13.65;100.00;96963.03;5053079;28;20102;-72
2022/07/05 02:20:18;;;;;;;5.10;1.70;;;;;;;13.56;100.00;96964.56;5020922;28;20248;-72
2022/07/05 02:22:45;;;;;;;4.63;1.52;;;;;;;13.55;100.00;96964.84;5036483;28;20148;-73
2022/07/05 02:25:11;;;;;;;3.85;1.73;;;;;;;13.57;100.00;96963.50;5033257;28;20451;-72
2022/07/05 02:27:36;;;;;;;7.70;1.80;;;;;;;13.49;100.00;96963.97;5051296;28;20036;-73
2022/07/05 02:30:03;;;;;;;6.90;2.30;;;;;;;13.50;100.00;96960.22;5051111;28;20399;-73
2022/07/05 02:32:35;;;;;;;3.60;1.73;;;;;;;13.47;100.00;96966.09;5047789;28;20045;-73
2022/07/05 02:35:04;;;;;;;3.92;2.00;;;;;;;13.49;100.00;96963.97;5035230;28;20044;-72
2022/07/05 02:37:30;;;;;;;4.63;2.08;;;;;;;13.53;100.00;96962.38;5036953;28;20033;-72
2022/07/05 02:39:55;;;;;;;5.20;1.90;;;;;;;13.52;100.00;96959.94;5035033;28;20403;-73
2022/07/05 02:42:21;;;;;;;4.38;1.95;;;;;;;13.57;100.00;96963.50;5032877;28;20025;-73
2022/07/05 02:44:47;;;;;;;6.60;2.53;;;;;;;13.59;100.00;96969.44;5032016;28;20511;-72
2022/07/05 02:47:13;;;;;;;5.43;2.30;;;;;;;13.74;100.00;96960.69;5048638;28;20029;-73
2022/07/05 02:49:39;;;;;;;6.38;1.85;;;;;;;13.77;100.00;96967.44;5054707;28;20582;-73
2022/07/05 02:52:06;;;;;;;4.32;1.80;;;;;;;13.89;100.00;96965.38;5038033;28;20615;-73
2022/07/05 02:54:33;;;;;;;4.63;1.90;;;;;;;13.92;100.00;96970.25;5036374;28;20095;-72
2022/07/05 02:57:00;;;;;;;3.92;1.70;;;;;;;13.95;100.00;96975.13;5039573;28;20041;-73
2022/07/05 02:59:30;;;;;;;4.35;1.90;;;;;;;13.97;100.00;96970.28;5050276;28;20108;-73
2022/07/05 03:01:56;;;;;;;6.75;2.00;;;;;;;13.79;100.00;96978.75;5039500;28;20040;-73
2022/07/05 03:04:21;;;;;;;5.18;1.85;;;;;;;13.73;100.00;96969.03;5040540;28;20033;-72
2022/07/05 03:06:52;;;;;;;4.88;2.20;;;;;;;13.69;100.00;96970.59;5035241;28;20045;-73
2022/07/05 03:09:19;;;;;;;3.80;2.00;;;;;;;13.79;100.00;96973.38;5032825;28;20044;-72
2022/07/05 03:11:45;;;;;;;5.20;1.83;;;;;;;13.81;100.00;96971.25;5050709;28;20104;-72
2022/07/05 03:14:11;;;;;;;8.38;1.80;;;;;;;13.83;100.00;96975.28;5036396;28;20087;-72
2022/07/05 03:16:38;;;;;;;5.75;2.10;;;;;;;13.84;100.00;96981.47;5053064;28;20025;-72
2022/07/05 03:19:04;;;;;;;6.47;1.80;;;;;;;13.83;100.00;96975.28;5053805;28;20045;-73
2022/07/05 03:21:30;;;;;;;4.03;2.00;;;;;;;13.81;100.00;96980.13;5052119;28;20043;-72
2022/07/05 03:23:56;;;;;;;6.28;2.00;;;;;;;13.66;100.00;96980.78;5036342;28;20380;-74
2022/07/05 03:26:22;;;;;;;4.47;1.92;;;;;;;13.56;100.00;96990.66;5038895;28;20421;-72
2022/07/05 03:28:47;;;;;;;5.03;1.80;;;;;;;13.58;100.00;96989.31;5038120;28;20033;-73
2022/07/05 03:31:13;;;;;;;8.18;2.08;;;;;;;13.26;100.00;96991.16;5040055;28;20511;-73
2022/07/05 03:33:41;;;;;;;5.25;1.80;;;;;;;13.13;100.00;96991.50;5034113;28;20572;-72
2022/07/05 03:36:09;;;;;;;4.57;1.60;;;;;;;12.83;100.00;96990.06;5050337;28;20040;-73
2022/07/05 03:38:36;;;;;;;7.18;1.83;;;;;;;12.99;100.00;96980.31;5034202;28;20037;-73
2022/07/05 03:41:01;;;;;;;5.40;1.65;;;;;;;13.07;100.00;96987.94;5038538;28;20028;-72
2022/07/05 03:43:28;;;;;;;4.10;1.80;;;;;;;12.75;100.00;96977.06;5041550;28;20025;-73
2022/07/05 03:45:54;;;;;;;6.95;1.65;;;;;;;12.48;100.00;96990.41;5040294;28;20033;-73
2022/07/05 03:48:20;;;;;;;5.40;1.80;;;;;;;12.53;100.00;96988.63;5052660;28;20052;-73
2022/07/05 03:50:47;;;;;;;5.63;2.10;;;;;;;12.79;100.00;96976.34;5052195;28;20037;-73
2022/07/05 03:53:13;;;;;;;7.10;1.90;;;;;;;12.92;100.00;96983.22;5054120;28;20235;-72
2022/07/05 03:55:39;;;;;;;4.18;1.55;;;;;;;12.72;100.00;96978.41;5035936;28;20518;-73
2022/07/05 03:58:05;;;;;;;4.65;2.13;;;;;;;12.69;100.00;96986.97;5038645;28;20047;-73
2022/07/05 04:00:32;;;;;;;3.42;1.77;;;;;;;12.72;100.00;96980.28;5034233;28;20021;-72
2022/07/05 04:03:03;;;;;;;6.93;1.95;;;;;;;12.85;100.00;96987.97;5041583;28;20088;-74
2022/07/05 04:05:29;;;;;;;6.75;1.90;;;;;;;12.90;100.00;96988.00;5038414;28;20037;-72
2022/07/05 04:07:56;;;;;;;5.32;1.92;;;;;;;12.91;100.00;96984.25;5037987;28;20064;-73
2022/07/05 04:10:27;;;;;;;3.08;1.63;;;;;;;13.02;100.00;96985.19;5038141;28;20488;-73
2022/07/05 04:12:53;;;;;;;4.28;1.98;;;;;;;13.04;100.00;96997.31;5036563;28;20048;-73
2022/07/05 04:15:18;;;;;;;4.13;1.83;;;;;;;13.03;100.00;96993.00;5038410;28;20044;-73
2022/07/05 04:17:50;;;;;;;5.50;1.98;;;;;;;13.04;100.00;96991.13;5051590;28;20495;-74
2022/07/05 04:20:16;;;;;;;4.30;1.90;;;;;;;13.02;100.00;96995.94;5033371;28;20321;-73
2022/07/05 04:22:44;;;;;;;4.22;2.08;;;;;;;13.08;100.00;96995.75;5033399;28;20044;-72
2022/07/05 04:25:17;;;;;;;6.47;2.17;;;;;;;13.22;100.00;96996.19;5038128;28;20454;-73
2022/07/05 04:27:52;;;;;;;7.93;1.80;;;;;;;13.23;100.00;97002.38;5050638;28;20041;-73
2022/07/05 04:30:20;;;;;;;6.63;2.00;;;;;;;13.23;100.00;97007.75;5034898;28;20036;-73
2022/07/05 04:32:45;;;;;;;5.82;2.30;;;;;;;13.31;100.00;97001.97;5036085;28;20029;-72
2022/07/05 04:35:12;;;;;;;5.38;1.88;;;;;;;13.43;100.00;97001.81;5019098;28;20037;-73
2022/07/05 04:37:39;;;;;;;3.95;1.67;;;;;;;13.31;100.00;97010.84;5060669;28;20557;-74
2022/07/05 04:40:07;;;;;;;5.18;1.85;;;;;;;13.41;100.00;97004.75;5026975;28;20400;-73
2022/07/05 04:42:34;;;;;;;4.20;1.70;;;;;;;13.33;100.00;97018.63;5041688;28;20055;-73
2022/07/05 04:45:00;;;;;;;3.55;1.80;;;;;;;13.37;100.00;97017.06;5032264;28;20056;-73
2022/07/05 04:47:26;;;;;;;6.70;1.80;;;;;;;13.41;100.00;97025.44;5033836;28;20032;-74
2022/07/05 04:49:53;;;;;;;5.22;1.83;;;;;;;13.51;100.00;97033.59;5037657;28;20040;-73
2022/07/05 04:52:18;;;;;;;4.80;2.17;;;;;;;13.65;100.00;97032.16;5038253;28;20041;-73
2022/07/05 04:54:44;;;;;;;4.78;1.70;;;;;;;13.53;100.00;97034.16;5035992;28;20364;-73
2022/07/05 04:57:10;;;;;;;5.70;2.38;;;;;;;13.57;100.00;97028.03;5034095;28;20079;-73
2022/07/05 04:59:35;;;;;;;6.60;2.25;;;;;;;13.56;100.00;97042.53;5033625;28;20039;-72
2022/07/05 05:02:02;;;;;;;5.47;2.05;;;;;;;13.55;100.00;97032.88;5036488;28;20068;-73
2022/07/05 05:04:27;;;;;;;9.20;3.50;;;;;;;13.67;100.00;97040.75;5034151;28;20037;-73
2022/07/05 05:06:53;;;;;;;5.50;2.63;;;;;;;13.67;100.00;97046.13;5035068;28;20091;-73
2022/07/05 05:09:18;;;;;;;8.40;3.20;;;;;;;13.70;100.00;97045.66;5036268;28;20539;-73
2022/07/05 05:11:44;;;;;;;10.95;3.75;;;;;;;13.78;100.00;97041.69;5035138;28;20404;-73
2022/07/05 05:14:09;;;;;;;9.90;4.35;;;;;;;13.82;100.00;97043.59;5034175;28;20041;-73
2022/07/05 05:16:35;;;;;;;9.43;3.55;;;;;;;14.02;100.00;97040.28;5034151;28;20435;-73
2022/07/05 05:19:00;;;;;;;7.38;2.83;;;;;;;14.19;100.00;97038.28;5034744;28;20068;-74
2022/07/05 05:21:26;;;;;;;8.15;3.45;;;;;;;14.35;100.00;97046.47;5034276;28;20098;-73
2022/07/05 05:23:51;;;;;;;12.80;3.10;;;;;;;14.45;100.00;97041.16;5035319;28;20472;-72
2022/07/05 05:26:17;;;;;;;10.98;3.92;;;;;;;14.54;100.00;97042.31;5035492;28;20504;-73
2022/07/05 05:28:42;;;;;;;6.35;2.60;;;;;;;14.61;100.00;97044.78;5035023;28;20121;-73
2022/07/05 05:31:08;;;;;;;9.05;2.90;;;;;;;14.66;100.00;97047.53;5034189;28;20033;-74
2022/07/05 05:33:33;;;;;;;9.05;3.22;;;;;;;14.74;100.00;97050.53;5038280;28;20116;-73
2022/07/05 05:36:00;;;;;;;7.70;2.90;;;;;;;14.73;100.00;97037.34;5034589;28;20463;-74
2022/07/05 05:38:26;;;;;;;11.10;3.83;;;;;;;14.81;100.00;97050.31;5035247;28;20060;-73
2022/07/05 05:40:51;;;;;;;11.10;3.83;;;;;;;14.87;100.00;97056.53;5035893;28;20063;-74
2022/07/05 05:43:17;;;;;;;7.28;2.97;;;;;;;14.92;100.00;97056.56;5034328;28;20111;-73
2022/07/05 05:45:42;;;;;;;6.65;2.80;;;;;;;14.98;100.00;97050.13;5034353;28;20067;-74
2022/07/05 05:48:07;;;;;;;8.93;4.57;;;;;;;15.02;100.00;97059.31;5048907;28;20080;-73
2022/07/05 05:50:36;;;;;;;7.38;3.47;;;;;;;15.09;100.00;97057.16;5051522;28;20032;-74
2022/07/05 05:53:02;;;;;;;5.82;2.60;;;;;;;15.17;100.00;97053.16;5035915;28;20135;-74
2022/07/05 05:55:29;;;;;;;8.88;2.75;;;;;;;15.16;100.00;97051.56;5033822;28;20135;-73
2022/07/05 05:57:56;;;;;;;7.90;2.28;;;;;;;15.30;100.00;97055.38;5034452;28;20057;-72
2022/07/05 06:00:22;;;;;;;5.30;2.28;;;;;;;15.38;100.00;97052.19;5032797;28;20032;-73
2022/07/05 06:02:49;;;;;;;6.15;2.65;;;;;;;15.50;100.00;97062.75;5035022;28;20037;-74
2022/07/05 06:05:15;;;;;;;4.35;2.05;;;;;;;15.61;100.00;97056.31;5031753;28;20060;-73
2022/07/05 06:07:46;;;;;;;5.85;2.30;;;;;;;15.73;100.00;97050.72;5034833;28;20496;-73
2022/07/05 06:10:15;;;;;;;4.18;2.30;;;;;;;15.81;100.00;97064.47;5032539;28;20077;-74
2022/07/05 06:12:40;;;;;;;4.90;2.05;;;;;;;15.90;100.00;97063.94;5032949;28;20030;-73
2022/07/05 06:15:07;;;;;;;4.07;2.10;;;;;;;15.96;100.00;97071.78;5036873;28;20049;-73
2022/07/05 06:17:36;;;;;;;4.32;2.38;;;;;;;16.04;100.00;97068.56;5034597;28;20420;-73
2022/07/05 06:20:14;;;;;;;8.27;2.13;;;;;;;16.11;100.00;97065.59;5032464;28;20040;-74
2022/07/05 06:22:39;;;;;;;7.85;1.88;;;;;;;16.20;100.00;97073.97;5033404;28;20037;-74
2022/07/05 06:25:06;;;;;;;7.80;2.22;;;;;;;16.26;100.00;97072.88;5034601;28;20028;-73
2022/07/05 06:27:37;;;;;;;5.38;2.10;;;;;;;16.32;100.00;97074.50;5035241;28;20033;-73
2022/07/05 06:30:02;;;;;;;5.07;2.00;;;;;;;16.39;100.00;97075.03;5035510;28;20543;-73
2022/07/05 06:32:28;;;;;;;7.30;2.38;;;;;;;16.43;100.00;97076.13;5034737;28;20285;-74
2022/07/05 06:34:53;;;;;;;5.03;2.30;;;;;;;16.47;100.00;97076.41;5036685;28;20352;-73
2022/07/05 06:37:19;;;;;;;4.15;2.28;;;;;;;16.53;100.00;97069.91;5033650;28;20218;-73
2022/07/05 06:39:44;;;;;;;6.97;2.30;;;;;;;16.61;100.00;97078.28;5034008;28;20091;-73
2022/07/05 06:42:10;;;;;;;5.57;1.92;;;;;;;16.67;100.00;97076.38;5035222;28;20041;-73
2022/07/05 06:44:35;;;;;;;6.50;2.50;;;;;;;16.75;100.00;97077.75;5031598;28;20105;-73
2022/07/05 06:47:00;;;;;;;4.30;2.20;;;;;;;16.81;100.00;97074.78;5035509;28;20072;-73
2022/07/05 06:49:26;;;;;;;5.15;2.45;;;;;;;16.82;100.00;97073.69;5033821;28;20120;-73
2022/07/05 06:51:51;;;;;;;5.70;1.98;;;;;;;16.91;100.00;97069.34;5035962;28;20060;-73
2022/07/05 06:54:17;;;;;;;6.80;2.22;;;;;;;16.97;100.00;97076.38;5033783;28;20741;-74
2022/07/05 06:56:42;;;;;;;3.85;2.13;;;;;;;17.01;100.00;97071.22;5034924;28;20512;-73
2022/07/05 06:59:08;;;;;;;6.72;2.00;;;;;;;17.08;100.00;97076.34;5033228;28;20264;-73
2022/07/05 07:01:34;;;;;;;4.15;2.00;;;;;;;17.07;100.00;97078.22;5049293;28;20476;-73
2022/07/05 07:03:59;;;;;;;7.38;2.22;;;;;;;16.95;100.00;97092.03;5035291;28;20456;-73
2022/07/05 07:06:25;;;;;;;3.97;2.40;;;;;;;17.10;100.00;97087.66;5032077;28;20088;-74
2022/07/05 07:11:34;;;;;;;3.95;1.90;;;;;;;17.31;100.00;97085.72;5035296;28;20131;-73
2022/07/05 07:14:00;;;;;;;9.75;2.00;;;;;;;17.36;100.00;97083.81;5034661;28;20040;-72
2022/07/05 07:16:25;;;;;;;6.35;2.25;;;;;;;17.41;100.00;97089.19;5034977;28;20108;-73
2022/07/05 07:18:53;;;;;;;5.40;1.95;;;;;;;17.43;100.00;97081.63;5034063;28;20056;-74
2022/07/05 07:21:19;;;;;;;6.15;1.90;;;;;;;17.50;100.00;97081.31;5034061;28;21187;-74
2022/07/05 07:23:44;;;;;;;4.65;2.00;;;;;;;17.53;100.00;97084.28;5036449;28;20017;-73
2022/07/05 07:26:10;;;;;;;5.05;1.92;;;;;;;17.51;100.00;97089.16;5034024;28;20511;-74
2022/07/05 07:28:35;;;;;;;6.13;2.10;;;;;;;17.54;100.00;97093.19;5034289;28;20021;-74
2022/07/05 07:31:01;;;;;;;5.40;1.90;;;;;;;17.61;100.00;97085.59;5033780;28;20075;-73
2022/07/05 07:33:26;;;;;;;4.97;2.20;;;;;;;17.72;100.00;97087.19;5034424;28;20037;-73
2022/07/05 07:35:51;;;;;;;4.13;2.25;;;;;;;17.83;100.00;97089.84;5036411;28;20384;-73
2022/07/05 07:38:17;;;;;;;4.53;2.15;;;;;;;17.83;100.00;97093.38;5037459;28;20526;-73
2022/07/05 07:40:42;;;;;;;6.65;1.90;;;;;;;17.93;100.00;97093.31;5037076;28;20163;-73
2022/07/05 07:43:08;;;;;;;6.30;2.00;;;;;;;17.93;100.00;97098.72;5039226;28;20025;-73
2022/07/05 07:45:33;;;;;;;4.45;2.13;;;;;;;18.02;100.00;97107.06;5038311;28;20029;-72
2022/07/05 07:47:59;;;;;;;4.97;2.42;;;;;;;17.96;100.00;97103.56;5035999;28;20036;-73
2022/07/05 07:50:24;;;;;;;3.97;2.00;;;;;;;17.97;100.00;97101.66;5055307;28;20052;-72
2022/07/05 07:52:50;;;;;;;6.47;2.42;;;;;;;18.04;100.00;97104.88;5033909;28;20044;-73
2022/07/05 07:55:15;;;;;;;4.15;2.00;;;;;;;18.13;100.00;97102.38;5037500;28;20037;-72
2022/07/05 07:57:41;;;;;;;5.85;2.28;;;;;;;18.23;100.00;97108.53;5037716;28;20037;-72
2022/07/05 08:00:07;;;;;;;6.95;2.30;;;;;;;18.32;100.00;97100.63;5055390;28;20360;-73
2022/07/05 08:02:37;;;;;;;5.05;2.30;;;;;;;18.30;100.00;97103.63;5036143;28;20116;-72
2022/07/05 08:05:05;;;;;;;4.07;2.10;;;;;;;18.38;100.00;97105.72;5036531;28;20033;-73
2022/07/05 08:07:31;;;;;;;8.10;2.40;;;;;;;18.41;100.00;97098.13;5037615;28;20028;-73
2022/07/05 08:09:57;;;;;;;6.22;2.03;;;;;;;18.44;100.00;97103.75;5032301;28;20566;-73
2022/07/05 08:12:22;;;;;;;8.52;3.00;;;;;;;18.49;100.00;97101.03;5041071;28;20041;-72
2022/07/05 08:14:48;;;;;;;7.32;2.38;;;;;;;18.56;100.00;97100.72;5002535;28;20133;-74
2022/07/05 08:17:14;;;;;;;6.70;2.28;;;;;;;18.55;100.00;97102.59;5037848;28;20042;-72
2022/07/05 08:22:23;;;;;;;5.07;2.42;;;;;;;18.67;100.00;97096.84;5052057;28;20063;-73
2022/07/05 08:24:49;;;;;;;5.30;3.00;;;;;;;18.74;100.00;97096.50;5035870;28;20037;-74
2022/07/05 08:27:15;;;;;;;5.25;2.38;;;;;;;18.84;100.00;97101.84;5037927;28;20463;-73
2022/07/05 08:29:41;;;;;;;5.68;2.92;;;;;;;18.87;100.00;97103.97;5039170;28;20108;-73
2022/07/05 08:32:08;;;;;;;4.70;2.40;;;;;;;18.89;100.00;97104.50;5039275;28;20124;-72
2022/07/05 08:34:33;;;;;;;6.75;2.17;;;;;;;18.96;100.00;97096.03;5035269;28;20029;-73
2022/07/05 08:36:59;;;;;;;6.97;2.45;;;;;;;18.99;100.00;97103.59;5057433;28;20071;-72
2022/07/05 08:39:25;;;;;;;9.95;2.90;;;;;;;19.14;100.00;97095.28;5033455;28;20036;-73
2022/07/05 08:41:51;;;;;;;5.32;2.88;;;;;;;19.30;100.00;97099.47;5033410;28;20555;-73
2022/07/05 08:44:19;;;;;;;6.93;3.22;;;;;;;19.42;100.00;97088.19;5036272;28;20028;-74
2022/07/05 08:46:46;;;;;;;7.07;3.00;;;;;;;19.76;100.00;97090.78;5035908;28;20356;-73
2022/07/05 08:49:14;;;;;;;7.47;3.33;;;;;;;20.06;99.83;97094.97;5035273;28;20090;-73
2022/07/05 08:51:41;;;;;;;6.13;3.42;;;;;;;20.28;99.20;97102.53;5037750;28;20063;-74
2022/07/05 08:54:09;;;;;;;9.60;4.07;;;;;;;20.46;97.23;97100.94;5035751;28;20048;-73
2022/07/05 08:56:36;;;;;;;9.57;3.20;;;;;;;20.61;96.35;97089.81;5040657;28;20091;-74
2022/07/05 08:59:03;;;;;;;11.80;2.85;;;;;;;20.71;99.06;97095.09;5062132;28;20029;-74
2022/07/05 09:01:34;;;;;;;4.43;2.80;;;;;;;20.85;96.98;97095.94;5038376;28;20086;-73
2022/07/05 09:04:05;;;;;;;7.05;3.42;;;;;;;20.75;95.72;97098.81;5037521;28;20515;-73
2022/07/05 09:06:32;;;;;;;8.27;3.50;;;;;;;20.66;95.46;97087.00;5036735;28;20041;-73
2022/07/05 09:08:59;;;;;;;9.80;3.15;;;;;;;20.70;97.63;97096.19;5037316;28;20063;-72
2022/07/05 09:11:31;;;;;;;8.15;2.90;;;;;;;20.73;98.47;97092.88;5035793;28;20057;-74
2022/07/05 09:13:56;;;;;;;12.45;3.22;;;;;;;20.82;99.33;97095.72;5036809;28;20047;-73
2022/07/05 09:16:23;;;;;;;7.43;3.40;;;;;;;21.14;96.28;97103.00;5036509;28;20055;-73
2022/07/05 09:18:51;;;;;;;6.47;2.92;;;;;;;21.40;95.24;97092.50;5032346;28;20108;-72
2022/07/05 09:21:26;;;;;;;6.55;2.90;;;;;;;21.90;94.94;97100.72;5037654;28;20048;-73
2022/07/05 09:24:00;;;;;;;7.45;3.72;;;;;;;22.04;89.94;97087.88;5038887;28;20385;-73
2022/07/05 09:26:31;;;;;;;7.85;2.83;;;;;;;21.93;92.80;97086.47;5055332;28;20064;-73
2022/07/05 09:28:57;;;;;;;7.68;3.08;;;;;;;21.39;95.87;97094.38;5037408;28;20387;-73
2022/07/05 09:31:28;;;;;;;4.78;2.75;;;;;;;21.28;96.29;97109.31;5036401;28;20369;-73
2022/07/05 09:33:53;;;;;;;6.82;3.03;;;;;;;20.97;96.70;97106.31;5035752;28;20673;-73
2022/07/05 09:36:19;;;;;;;6.25;3.00;;;;;;;21.02;96.56;97110.88;5037724;28;20441;-73
2022/07/05 09:38:51;;;;;;;7.32;2.90;;;;;;;21.41;96.31;97105.00;5032386;28;20071;-73
2022/07/05 09:41:17;;;;;;;7.35;3.78;;;;;;;21.76;90.44;97102.63;5034612;28;20499;-74
2022/07/05 09:43:42;;;;;;;6.68;3.35;;;;;;;21.98;89.87;97089.09;5036927;28;20343;-72
2022/07/05 09:46:08;;;;;;;6.78;2.97;;;;;;;22.03;91.53;97091.72;5035357;28;20042;-74
2022/07/05 09:48:34;;;;;;;5.65;3.05;;;;;;;22.39;89.57;97094.44;5036130;28;20124;-74
2022/07/05 09:51:11;;;;;;;6.93;2.90;;;;;;;22.94;87.35;97094.19;5033790;28;20508;-72
2022/07/05 09:53:47;;;;;;;7.18;3.00;;;;;;;23.38;86.56;97097.13;5033311;28;20535;-73
2022/07/05 09:56:13;;;;;;;9.18;3.60;;;;;;;23.03;85.14;97095.06;5034706;28;20028;-73
2022/07/05 09:58:39;;;;;;;9.65;3.30;;;;;;;23.04;84.49;97104.84;5033766;28;20079;-73
2022/07/05 10:01:25;;;;;;;8.02;3.22;;;;;;;23.13;79.36;97102.16;5033655;28;20041;-74
2022/07/05 10:03:53;;;;;;;8.30;3.30;;;;;;;23.25;79.37;97107.00;5033549;28;20599;-73
2022/07/05 10:06:19;;;;;;;6.65;3.60;;;;;;;22.91;81.72;97099.47;5036786;28;20152;-74
2022/07/05 10:08:46;;;;;;;6.40;3.00;;;;;;;23.02;81.83;97103.53;5035421;28;20120;-72
2022/07/05 10:11:12;;;;;;;6.40;3.05;;;;;;;22.29;84.67;97115.69;5035045;28;20037;-72
2022/07/05 10:13:39;;;;;;;5.47;3.28;;;;;;;21.78;88.41;97112.13;5036626;28;20047;-73
2022/07/05 10:16:14;;;;;;;5.11;2.85;;;;;;;22.27;87.42;97110.53;4625818;28;10001156;-73
2022/07/05 10:18:43;;;;;;;9.20;3.15;;;;;;;22.78;84.09;97112.03;5032549;28;20256;-73
2022/07/05 10:21:13;;;;;;;5.90;3.17;;;;;;;23.19;81.89;97105.53;5033472;28;20033;-74
2022/07/05 10:23:43;;;;;;;11.13;3.88;;;;;;;23.85;80.30;97109.19;5034086;28;20044;-73
2022/07/05 10:26:11;;;;;;;6.28;2.80;;;;;;;23.45;78.78;97108.41;5029343;28;20029;-73
2022/07/05 10:28:39;;;;;;;5.53;3.20;;;;;;;22.68;81.17;97117.75;5032659;28;20040;-73
2022/07/05 10:31:06;;;;;;;7.50;3.40;;;;;;;22.10;84.91;97110.38;5033208;28;20499;-73
2022/07/05 10:33:32;;;;;;;9.88;2.78;;;;;;;22.33;86.57;97116.66;5048208;28;20037;-73
2022/07/05 10:35:58;;;;;;;6.78;3.22;;;;;;;23.08;86.11;97105.00;5036846;28;20032;-73
2022/07/05 10:38:25;;;;;;;8.27;3.63;;;;;;;23.49;83.05;97101.97;5031618;28;20041;-73
2022/07/05 10:40:57;;;;;;;5.75;2.92;;;;;;;23.82;79.64;97096.97;5031562;28;20399;-73
2022/07/05 10:43:24;;;;;;;6.68;3.03;;;;;;;23.94;77.79;97101.00;5032584;28;20143;-74
2022/07/05 10:45:50;;;;;;;5.85;2.63;;;;;;;23.16;79.91;97111.63;5032467;28;20432;-74
2022/07/05 10:48:18;;;;;;;6.53;2.70;;;;;;;22.61;81.13;97109.19;5031223;28;20440;-73
2022/07/05 10:50:49;;;;;;;4.80;2.47;;;;;;;23.01;79.08;97110.09;5035820;28;20321;-74
2022/07/05 10:53:16;;;;;;;5.60;2.80;;;;;;;22.86;81.55;97114.03;5047979;28;20444;-74
2022/07/05 10:55:58;;;;;;;7.78;2.10;;;;;;;23.28;73.64;97104.47;5032775;28;20222;-75
2022/07/05 10:58:44;;;;;;;5.57;2.30;;;;;;;23.51;72.83;97101.69;5032647;28;20371;-73
2022/07/05 11:01:16;;;;;;;5.97;2.30;;;;;;;24.11;67.11;97081.88;5030774;28;20497;-74
2022/07/05 11:03:44;;;;;;;8.68;2.15;;;;;;;24.47;63.78;97097.22;5034800;28;20099;-74
2022/07/05 11:06:26;;;;;;;4.95;2.28;;;;;;;24.13;62.36;97098.78;5028792;28;20040;-73
2022/07/05 11:09:00;;;;;;;4.32;1.77;;;;;;;24.76;58.82;97085.59;5034538;28;20360;-74
2022/07/05 11:11:28;;;;;;;4.32;2.00;;;;;;;24.59;55.01;97092.69;5034313;28;20034;-73
2022/07/05 11:13:55;;;;;;;4.22;1.90;;;;;;;24.63;58.14;97090.91;5034054;28;20032;-74
2022/07/05 11:16:25;;;;;;;5.47;1.77;;;;;;;25.09;52.96;97096.81;5051785;28;20037;-73
2022/07/05 11:19:03;;;;;;;6.55;1.70;;;;;;;25.56;46.32;97089.38;5034572;28;20439;-75
2022/07/05 11:21:29;;;;;;;5.28;1.50;;;;;;;25.33;40.11;97099.78;5037802;28;20037;-73
2022/07/05 11:24:18;;;;;;;5.63;1.83;;;;;;;25.58;42.39;97089.81;5038981;28;20036;-73
2022/07/05 11:26:44;;;;;;;3.55;1.67;;;;;;;26.27;37.28;97083.94;5036983;28;20095;-73
2022/07/05 11:29:41;;;;;;;3.47;1.33;;;;;;;27.25;35.25;97083.53;5033761;28;20488;-74
2022/07/05 11:32:09;;;;;;;5.25;1.40;;;;;;;28.72;34.51;97070.38;5036116;28;20029;-74